createdAt,value
2017-09-05T00:02:14.329Z,12.23
2017-09-05T00:04:41.153Z,11.93
2017-09-05T00:07:08.042Z,13.77
2017-09-05T00:09:50.796Z,10.23
2017-09-05T00:12:23.681Z,17.00
2017-09-05T00:14:54.188Z,11.88
2017-09-05T00:17:30.985Z,10.88
2017-09-05T00:19:57.889Z,12.52
2017-09-05T00:22:24.760Z,10.45
2017-09-05T00:24:51.594Z,11.05
2017-09-05T00:27:18.459Z,12.65
2017-09-05T00:29:45.286Z,11.60
2017-09-05T00:32:12.124Z,10.77
2017-09-05T00:34:38.990Z,10.73
2017-09-05T00:37:05.840Z,10.88
2017-09-05T00:39:32.689Z,12.52
2017-09-05T00:41:59.546Z,10.43
2017-09-05T00:44:26.384Z,11.35
2017-09-05T00:46:53.251Z,11.77
2017-09-05T00:49:20.066Z,13.77
2017-09-05T00:51:47.594Z,15.85
2017-09-05T00:54:14.514Z,11.85
2017-09-05T00:56:41.336Z,11.30
2017-09-05T00:59:08.140Z,11.57
2017-09-05T01:01:34.984Z,11.63
2017-09-05T01:04:01.823Z,11.52
2017-09-05T01:06:28.707Z,11.40
2017-09-05T01:08:55.622Z,12.52
2017-09-05T01:11:22.468Z,16.12
2017-09-05T01:13:49.339Z,15.52
2017-09-05T01:16:16.221Z,12.63
2017-09-05T01:18:43.047Z,12.48
2017-09-05T01:21:09.882Z,14.93
2017-09-05T01:23:36.664Z,13.70
2017-09-05T01:26:03.507Z,13.62
2017-09-05T01:28:30.379Z,12.70
2017-09-05T01:30:57.207Z,12.20
2017-09-05T01:33:24.030Z,13.55
2017-09-05T01:35:50.892Z,15.13
2017-09-05T01:38:18.313Z,13.57
2017-09-05T01:40:45.110Z,17.17
2017-09-05T01:43:11.933Z,14.30
2017-09-05T01:45:38.780Z,13.95
2017-09-05T01:48:05.564Z,14.25
2017-09-05T01:50:32.416Z,16.20
2017-09-05T01:52:59.214Z,15.40
2017-09-05T01:55:25.978Z,15.23
2017-09-05T01:57:52.775Z,16.60
2017-09-05T02:00:19.640Z,16.08
2017-09-05T02:02:46.415Z,13.73
2017-09-05T02:05:13.245Z,14.95
2017-09-05T02:07:40.134Z,18.27
2017-09-05T02:10:06.939Z,15.55
2017-09-05T02:12:33.737Z,16.42
2017-09-05T02:15:00.583Z,14.43
2017-09-05T02:17:27.378Z,14.60
2017-09-05T02:19:54.224Z,17.27
2017-09-05T02:22:21.124Z,13.80
2017-09-05T02:24:48.016Z,13.82
2017-09-05T02:27:14.845Z,15.65
2017-09-05T02:29:41.658Z,19.33
2017-09-05T02:32:08.445Z,14.87
2017-09-05T02:34:35.239Z,15.18
2017-09-05T02:37:02.067Z,18.75
2017-09-05T02:39:28.850Z,18.87
2017-09-05T02:41:55.656Z,17.90
2017-09-05T02:44:22.480Z,15.57
2017-09-05T02:46:49.280Z,15.93
2017-09-05T02:49:16.094Z,18.55
2017-09-05T02:51:42.899Z,17.95
2017-09-05T02:54:09.740Z,19.20
2017-09-05T02:56:36.556Z,20.67
2017-09-05T02:59:03.406Z,18.35
2017-09-05T03:01:30.189Z,18.60
2017-09-05T03:03:57.007Z,20.60
2017-09-05T03:06:23.834Z,20.90
2017-09-05T03:08:50.874Z,19.60
2017-09-05T03:11:17.690Z,20.25
2017-09-05T03:13:44.538Z,19.42
2017-09-05T03:16:11.366Z,20.23
2017-09-05T03:18:38.227Z,19.92
2017-09-05T03:21:05.078Z,20.08
2017-09-05T03:23:31.899Z,21.25
2017-09-05T03:25:58.782Z,18.08
2017-09-05T03:28:25.579Z,18.35
2017-09-05T03:30:52.420Z,18.48
2017-09-05T03:33:19.217Z,18.50
2017-09-05T03:35:46.044Z,22.17
2017-09-05T03:38:12.862Z,17.10
2017-09-05T03:40:39.686Z,16.08
2017-09-05T03:43:06.536Z,19.25
2017-09-05T03:45:33.342Z,18.30
2017-09-05T03:48:00.138Z,16.85
2017-09-05T03:50:26.989Z,19.08
2017-09-05T03:52:53.789Z,16.52
2017-09-05T03:55:20.614Z,17.50
2017-09-05T03:57:47.452Z,15.50
2017-09-05T04:00:14.322Z,17.50
2017-09-05T04:02:41.123Z,18.45
2017-09-05T04:05:07.986Z,17.02
2017-09-05T04:07:34.772Z,17.00
2017-09-05T04:10:01.622Z,18.15
2017-09-05T04:12:28.453Z,19.48
2017-09-05T04:14:55.266Z,17.42
2017-09-05T04:17:22.806Z,16.85
2017-09-05T04:19:49.630Z,17.15
2017-09-05T04:22:16.455Z,15.48
2017-09-05T04:24:43.299Z,17.02
2017-09-05T04:27:10.117Z,15.38
2017-09-05T04:29:36.990Z,20.70
2017-09-05T04:32:03.819Z,15.43
2017-09-05T04:34:31.142Z,18.42
2017-09-05T04:36:57.939Z,18.17
2017-09-05T04:39:24.871Z,16.50
2017-09-05T04:41:51.721Z,16.80
2017-09-05T04:44:18.517Z,13.95
2017-09-05T04:46:45.301Z,16.25
2017-09-05T04:49:12.246Z,18.80
2017-09-05T04:51:39.037Z,15.95
2017-09-05T04:54:05.852Z,17.58
2017-09-05T04:56:32.684Z,17.02
2017-09-05T04:58:59.574Z,18.77
2017-09-05T05:01:26.351Z,21.17
2017-09-05T05:03:53.173Z,16.92
2017-09-05T05:06:20.004Z,16.83
2017-09-05T05:08:46.845Z,17.40
2017-09-05T05:11:13.669Z,19.02
2017-09-05T05:13:40.498Z,16.52
2017-09-05T05:16:07.368Z,16.95
2017-09-05T05:18:34.191Z,17.60
2017-09-05T05:21:01.009Z,19.17
2017-09-05T05:23:27.867Z,17.45
2017-09-05T05:25:54.692Z,16.62
2017-09-05T05:28:21.556Z,18.48
2017-09-05T05:30:48.428Z,17.40
2017-09-05T05:33:15.257Z,19.65
2017-09-05T05:35:42.098Z,18.52
2017-09-05T05:38:08.945Z,17.92
2017-09-05T05:40:35.849Z,20.60
2017-09-05T05:43:02.644Z,17.40
2017-09-05T05:45:29.433Z,18.70
2017-09-05T05:47:56.256Z,18.15
2017-09-05T05:50:23.110Z,16.90
2017-09-05T05:52:49.949Z,16.85
2017-09-05T05:55:16.793Z,18.65
2017-09-05T05:57:43.571Z,14.40
2017-09-05T06:00:10.355Z,19.20
2017-09-05T06:02:37.181Z,17.55
2017-09-05T06:05:04.385Z,13.55
2017-09-05T06:07:31.168Z,17.67
2017-09-05T06:09:58.488Z,17.23
2017-09-05T06:12:25.313Z,18.12
2017-09-05T06:14:52.142Z,18.27
2017-09-05T06:17:18.955Z,18.62
2017-09-05T06:19:45.762Z,17.98
2017-09-05T06:22:12.522Z,17.90
2017-09-05T06:24:39.332Z,17.35
2017-09-05T06:27:06.102Z,16.98
2017-09-05T06:29:32.854Z,18.10
2017-09-05T06:31:59.636Z,18.75
2017-09-05T06:34:26.384Z,18.95
2017-09-05T06:36:53.198Z,15.30
2017-09-05T06:39:19.981Z,15.35
2017-09-05T06:41:46.723Z,16.42
2017-09-05T06:44:13.476Z,16.00
2017-09-05T06:46:40.243Z,14.70
2017-09-05T06:49:06.996Z,14.87
2017-09-05T06:51:33.763Z,13.07
2017-09-05T06:54:01.198Z,14.05
2017-09-05T06:56:27.947Z,13.05
2017-09-05T06:58:54.706Z,14.15
2017-09-05T07:01:21.504Z,13.43
2017-09-05T07:03:48.259Z,12.98
2017-09-05T07:06:15.248Z,9.33
2017-09-05T07:08:42.880Z,9.70
2017-09-05T07:11:09.883Z,10.00
2017-09-05T07:13:36.631Z,8.57
2017-09-05T07:16:03.400Z,9.93
2017-09-05T07:18:30.162Z,8.97
2017-09-05T07:20:56.923Z,9.27
2017-09-05T07:23:23.696Z,7.93
2017-09-05T07:25:50.446Z,9.13
2017-09-05T07:28:17.499Z,10.70
2017-09-05T07:30:44.286Z,9.40
2017-09-05T07:33:11.050Z,10.10
2017-09-05T07:35:37.784Z,9.65
2017-09-05T07:38:04.559Z,9.73
2017-09-05T07:40:31.554Z,8.90
2017-09-05T07:42:58.296Z,9.70
2017-09-05T07:45:25.099Z,9.10
2017-09-05T07:47:51.867Z,8.98
2017-09-05T07:50:18.624Z,9.68
2017-09-05T07:52:45.417Z,9.18
2017-09-05T07:55:12.165Z,9.18
2017-09-05T07:57:38.930Z,7.95
2017-09-05T08:00:05.703Z,8.48
2017-09-05T08:02:32.457Z,9.20
2017-09-05T08:04:59.246Z,8.45
2017-09-05T08:07:26.020Z,9.00
2017-09-05T08:09:52.774Z,8.17
2017-09-05T08:12:19.553Z,8.33
2017-09-05T08:14:46.319Z,8.33
2017-09-05T08:17:13.090Z,8.63
2017-09-05T08:19:39.858Z,6.50
2017-09-05T08:22:06.906Z,7.97
2017-09-05T08:24:33.661Z,7.23
2017-09-05T08:27:00.419Z,8.80
2017-09-05T08:29:27.155Z,8.17
2017-09-05T08:31:53.931Z,7.83
2017-09-05T08:34:20.682Z,8.90
2017-09-05T08:36:47.455Z,8.00
2017-09-05T08:39:14.210Z,8.70
2017-09-05T08:41:40.976Z,8.77
2017-09-05T08:44:07.743Z,7.27
2017-09-05T08:46:34.817Z,8.20
2017-09-05T08:49:01.578Z,8.03
2017-09-05T08:51:28.344Z,7.60
2017-09-05T08:53:55.090Z,8.20
2017-09-05T08:56:21.864Z,6.90
2017-09-05T08:58:48.630Z,7.60
2017-09-05T09:01:15.387Z,7.60
2017-09-05T09:03:42.140Z,7.90
2017-09-05T09:06:08.921Z,7.93
2017-09-05T09:08:35.679Z,8.17
2017-09-05T09:11:02.421Z,8.67
2017-09-05T09:13:29.189Z,9.93
2017-09-05T09:15:55.950Z,8.00
2017-09-05T09:18:22.706Z,8.13
2017-09-05T09:20:49.479Z,7.33
2017-09-05T09:23:16.641Z,7.90
2017-09-05T09:25:43.395Z,9.00
2017-09-05T09:28:10.383Z,8.43
2017-09-05T09:30:37.136Z,10.33
2017-09-05T09:33:03.914Z,8.13
2017-09-05T09:35:30.675Z,9.38
2017-09-05T09:37:57.467Z,7.68
2017-09-05T09:40:24.217Z,9.68
2017-09-05T09:42:50.984Z,9.93
2017-09-05T09:45:17.739Z,8.87
2017-09-05T09:47:44.518Z,8.10
2017-09-05T09:50:11.272Z,8.20
2017-09-05T09:52:38.050Z,7.13
2017-09-05T09:55:04.800Z,7.50
2017-09-05T09:57:32.109Z,9.67
2017-09-05T09:59:58.866Z,7.80
2017-09-05T10:02:25.632Z,7.73
2017-09-05T10:04:53.881Z,9.30
2017-09-05T10:07:20.694Z,9.00
2017-09-05T10:09:47.436Z,8.00
2017-09-05T10:12:14.698Z,10.10
2017-09-05T10:14:41.444Z,7.43
2017-09-05T10:17:08.222Z,7.50
2017-09-05T10:19:34.968Z,8.00
2017-09-05T10:22:01.761Z,7.47
2017-09-05T10:24:28.508Z,7.03
2017-09-05T10:26:55.663Z,7.20
2017-09-05T10:29:22.821Z,6.30
2017-09-05T10:31:49.564Z,8.10
2017-09-05T10:34:16.318Z,6.77
2017-09-05T10:36:43.078Z,6.67
2017-09-05T10:39:09.842Z,6.53
2017-09-05T10:41:36.574Z,7.27
2017-09-05T10:44:03.730Z,6.67
2017-09-05T10:46:30.469Z,8.17
2017-09-05T10:48:57.240Z,7.37
2017-09-05T10:51:24.395Z,6.90
2017-09-05T10:53:51.372Z,6.27
2017-09-05T10:56:18.130Z,6.47
2017-09-05T10:58:44.910Z,5.13
2017-09-05T11:01:11.657Z,5.80
2017-09-05T11:03:38.406Z,5.43
2017-09-05T11:06:05.429Z,5.93
2017-09-05T11:08:32.185Z,6.27
2017-09-05T11:10:58.928Z,5.40
2017-09-05T11:13:25.693Z,5.47
2017-09-05T11:15:52.446Z,5.63
2017-09-05T11:18:19.811Z,5.33
2017-09-05T11:20:46.588Z,5.33
2017-09-05T11:23:13.685Z,4.97
2017-09-05T11:25:40.436Z,4.80
2017-09-05T11:28:07.220Z,5.00
2017-09-05T11:30:33.978Z,5.53
2017-09-05T11:33:00.712Z,5.93
2017-09-05T11:35:27.477Z,5.90
2017-09-05T11:37:54.211Z,4.70
2017-09-05T11:40:20.959Z,6.20
2017-09-05T11:42:47.730Z,4.90
2017-09-05T11:45:14.468Z,5.40
2017-09-05T11:47:41.213Z,6.57
2017-09-05T11:50:08.707Z,5.37
2017-09-05T11:52:35.444Z,5.43
2017-09-05T11:55:02.703Z,5.90
2017-09-05T11:57:29.490Z,5.80
2017-09-05T11:59:56.229Z,5.37
2017-09-05T12:02:23.040Z,6.40
2017-09-05T12:04:51.588Z,5.67
2017-09-05T12:07:18.340Z,5.00
2017-09-05T12:09:45.085Z,4.40
2017-09-05T12:12:11.852Z,6.07
2017-09-05T12:14:38.594Z,5.70
2017-09-05T12:17:05.331Z,5.80
2017-09-05T12:19:32.092Z,4.93
2017-09-05T12:21:58.832Z,5.33
2017-09-05T12:24:25.577Z,6.80
2017-09-05T12:26:52.349Z,5.80
2017-09-05T12:29:19.097Z,5.80
2017-09-05T12:31:45.859Z,4.90
2017-09-05T12:34:12.643Z,4.50
2017-09-05T12:36:39.383Z,5.70
2017-09-05T12:39:06.129Z,5.67
2017-09-05T12:41:33.158Z,6.53
2017-09-05T12:43:59.914Z,5.47
2017-09-05T12:46:27.518Z,9.20
2017-09-05T12:48:55.112Z,6.27
2017-09-05T12:51:21.898Z,7.53
2017-09-05T12:53:48.627Z,6.60
2017-09-05T12:56:15.392Z,5.70
2017-09-05T12:58:42.131Z,6.40
2017-09-05T13:01:08.904Z,5.93
2017-09-05T13:03:35.650Z,6.47
2017-09-05T13:06:02.671Z,8.50
2017-09-05T13:08:29.414Z,5.67
2017-09-05T13:10:56.188Z,4.93
2017-09-05T13:13:22.938Z,6.90
2017-09-05T13:15:49.704Z,6.30
2017-09-05T13:18:18.489Z,7.10
2017-09-05T13:20:45.270Z,5.73
2017-09-05T13:23:12.025Z,5.73
2017-09-05T13:25:38.802Z,6.00
2017-09-05T13:28:05.540Z,6.20
2017-09-05T13:30:32.304Z,6.50
2017-09-05T13:32:59.090Z,6.93
2017-09-05T13:35:25.861Z,6.87
2017-09-05T13:37:52.614Z,7.03
2017-09-05T13:40:19.357Z,6.43
2017-09-05T13:42:46.130Z,6.30
2017-09-05T13:45:12.876Z,6.33
2017-09-05T13:47:39.650Z,5.40
2017-09-05T13:50:06.388Z,9.93
2017-09-05T13:52:33.161Z,6.90
2017-09-05T13:54:59.901Z,5.43
2017-09-05T13:57:26.682Z,5.60
2017-09-05T13:59:53.434Z,4.53
2017-09-05T14:02:20.205Z,5.53
2017-09-05T14:04:46.959Z,5.43
2017-09-05T14:07:13.731Z,5.97
2017-09-05T14:09:40.474Z,6.37
2017-09-05T14:12:07.240Z,5.93
2017-09-05T14:14:33.986Z,6.50
2017-09-05T14:17:00.759Z,5.23
2017-09-05T14:19:27.518Z,6.43
2017-09-05T14:21:54.280Z,6.50
2017-09-05T14:24:21.044Z,6.23
2017-09-05T14:26:47.811Z,6.30
2017-09-05T14:29:14.547Z,6.83
2017-09-05T14:31:41.300Z,6.70
2017-09-05T14:34:08.044Z,6.07
2017-09-05T14:36:34.809Z,5.20
2017-09-05T14:39:01.544Z,7.37
2017-09-05T14:41:28.535Z,7.60
2017-09-05T14:43:55.294Z,7.30
2017-09-05T14:46:22.074Z,6.57
2017-09-05T14:48:48.833Z,6.20
2017-09-05T14:51:15.594Z,7.00
2017-09-05T14:53:42.365Z,8.33
2017-09-05T14:56:09.121Z,7.80
2017-09-05T14:58:35.894Z,8.20
2017-09-05T15:01:02.658Z,6.55
2017-09-05T15:03:29.445Z,9.20
2017-09-05T15:05:56.197Z,9.10
2017-09-05T15:08:22.972Z,9.52
2017-09-05T15:10:49.708Z,9.30
2017-09-05T15:13:16.586Z,7.80
2017-09-05T15:15:43.660Z,9.40
2017-09-05T15:18:10.444Z,10.13
2017-09-05T15:20:37.201Z,9.07
2017-09-05T15:23:03.961Z,9.40
2017-09-05T15:25:30.693Z,9.30
2017-09-05T15:27:57.459Z,9.47
2017-09-05T15:30:24.202Z,9.57
2017-09-05T15:32:51.204Z,8.30
2017-09-05T15:35:19.584Z,8.40
2017-09-05T15:37:46.343Z,9.47
2017-09-05T15:40:13.103Z,8.50
2017-09-05T15:42:39.900Z,10.18
2017-09-05T15:45:06.632Z,8.27
2017-09-05T15:47:33.383Z,8.93
2017-09-05T15:50:00.119Z,9.93
2017-09-05T15:52:27.284Z,8.47
2017-09-05T15:54:54.028Z,8.43
2017-09-05T15:57:20.798Z,7.50
2017-09-05T15:59:49.389Z,7.53
2017-09-05T16:02:16.147Z,6.37
2017-09-05T16:04:42.876Z,8.10
2017-09-05T16:07:09.603Z,7.23
2017-09-05T16:09:36.401Z,8.10
2017-09-05T16:12:03.188Z,6.30
2017-09-05T16:14:29.985Z,6.80
2017-09-05T16:16:58.600Z,6.73
2017-09-05T16:19:27.089Z,5.50
2017-09-05T16:21:53.889Z,5.97
2017-09-05T16:24:20.684Z,6.10
2017-09-05T16:26:47.874Z,5.43
2017-09-05T16:29:14.680Z,6.10
2017-09-05T16:31:43.270Z,7.13
2017-09-05T16:34:13.806Z,6.77
2017-09-05T16:36:40.589Z,9.27
2017-09-05T16:41:40.327Z,5.97
2017-09-05T16:44:07.124Z,6.60
2017-09-05T16:46:34.801Z,6.37
2017-09-05T16:49:01.601Z,5.97
2017-09-05T16:51:30.064Z,7.00
2017-09-05T16:53:56.885Z,6.30
2017-09-05T16:56:23.669Z,6.40
2017-09-05T16:58:50.476Z,6.20
2017-09-05T17:01:17.256Z,6.90
2017-09-05T17:03:44.066Z,7.90
2017-09-05T17:06:10.841Z,7.90
2017-09-05T17:08:37.656Z,6.57
2017-09-05T17:11:04.585Z,8.10
2017-09-05T17:13:31.379Z,8.27
2017-09-05T17:15:58.201Z,7.23
2017-09-05T17:18:26.343Z,7.73
2017-09-05T17:20:53.268Z,9.80
2017-09-05T17:23:20.055Z,8.20
2017-09-05T17:25:47.003Z,8.27
2017-09-05T17:28:13.820Z,8.77
2017-09-05T17:30:40.591Z,7.30
2017-09-05T17:33:07.355Z,7.95
2017-09-05T17:35:34.320Z,8.47
2017-09-05T17:38:01.255Z,7.28
2017-09-05T17:40:29.837Z,8.03
2017-09-05T17:42:56.641Z,8.43
2017-09-05T17:45:23.420Z,7.10
2017-09-05T17:50:22.933Z,6.80
2017-09-05T17:52:49.729Z,7.20
2017-09-05T17:55:17.446Z,9.73
2017-09-05T17:57:44.218Z,7.70
2017-09-05T18:00:11.032Z,8.23
2017-09-05T18:02:37.820Z,9.48
2017-09-05T18:05:04.756Z,7.77
2017-09-05T18:07:31.545Z,8.38
2017-09-05T18:12:29.389Z,12.02
2017-09-05T18:14:56.203Z,9.30
2017-09-05T18:17:29.335Z,12.55
2017-09-05T18:19:56.144Z,8.30
2017-09-05T18:22:22.953Z,7.80
2017-09-05T18:24:49.760Z,10.52
2017-09-05T18:27:16.556Z,9.10
2017-09-05T18:29:43.376Z,9.48
2017-09-05T18:32:10.155Z,8.52
2017-09-05T18:34:36.960Z,7.22
2017-09-05T18:37:03.757Z,8.30
2017-09-05T18:39:30.574Z,8.50
2017-09-05T18:41:57.359Z,7.12
2017-09-05T18:44:24.157Z,5.45
2017-09-05T18:46:50.950Z,6.32
2017-09-05T18:49:17.744Z,5.75
2017-09-05T18:51:44.675Z,4.97
2017-09-05T18:54:11.497Z,5.25
2017-09-05T18:56:38.268Z,6.28
2017-09-05T18:59:05.061Z,6.00
2017-09-05T19:01:31.882Z,4.55
2017-09-05T19:03:58.680Z,4.20
2017-09-05T19:06:25.472Z,4.50
2017-09-05T19:08:52.292Z,4.55
2017-09-05T19:11:19.216Z,5.35
2017-09-05T19:13:46.315Z,5.43
2017-09-05T19:16:13.308Z,5.35
2017-09-05T19:18:40.101Z,4.53
2017-09-05T19:21:06.867Z,5.35
2017-09-05T19:23:33.694Z,4.57
2017-09-05T19:26:00.475Z,7.05
2017-09-05T19:28:27.270Z,4.55
2017-09-05T19:30:54.077Z,4.90
2017-09-05T19:33:20.872Z,5.10
2017-09-05T19:35:47.800Z,5.82
2017-09-05T19:40:50.414Z,5.07
2017-09-05T19:43:17.241Z,4.90
2017-09-05T19:45:44.036Z,6.05
2017-09-05T19:48:10.963Z,4.80
2017-09-05T19:50:37.900Z,4.75
2017-09-05T19:53:04.688Z,5.47
2017-09-05T19:55:31.488Z,4.30
2017-09-05T19:57:58.278Z,4.60
2017-09-05T20:00:25.192Z,6.57
2017-09-05T20:02:52.004Z,4.68
2017-09-05T20:05:18.791Z,4.03
2017-09-05T20:10:16.642Z,4.90
2017-09-05T20:12:43.427Z,4.45
2017-09-05T20:15:10.478Z,4.68
2017-09-05T20:17:37.305Z,7.00
2017-09-05T20:20:04.952Z,4.25
2017-09-05T20:22:31.749Z,4.95
2017-09-05T20:24:58.969Z,7.07
2017-09-05T20:27:25.776Z,4.40
2017-09-05T20:29:53.362Z,5.55
2017-09-05T20:32:20.430Z,4.47
2017-09-05T20:34:48.329Z,5.18
2017-09-05T20:37:15.110Z,5.30
2017-09-05T20:39:42.548Z,4.68
2017-09-05T20:42:09.389Z,4.95
2017-09-05T20:44:36.447Z,4.50
2017-09-05T20:47:03.322Z,5.03
2017-09-05T20:49:30.454Z,7.00
2017-09-05T20:51:58.970Z,7.00
2017-09-05T20:57:27.011Z,8.52
2017-09-05T21:02:41.929Z,9.30
2017-09-05T21:07:53.967Z,9.98
2017-09-05T21:10:21.151Z,10.93
2017-09-05T21:12:48.065Z,9.05
2017-09-05T21:15:15.308Z,9.95
2017-09-05T21:17:42.116Z,9.68
2017-09-05T21:20:10.929Z,11.77
2017-09-05T21:22:38.102Z,10.25
2017-09-05T21:25:08.830Z,10.15
2017-09-05T21:27:37.313Z,9.32
2017-09-05T21:32:36.980Z,8.63
2017-09-05T21:35:05.469Z,9.27
2017-09-05T21:40:08.677Z,9.15
2017-09-05T22:18:32.788Z,16.80
2017-09-05T22:23:43.108Z,17.27
2017-09-05T22:29:10.118Z,17.15
2017-09-05T22:36:43.814Z,16.98
2017-09-05T22:39:12.439Z,18.55
2017-09-05T22:51:51.752Z,22.05
2017-09-05T23:09:29.377Z,41.55
2017-09-05T23:11:58.068Z,34.58
2017-09-05T23:14:28.777Z,33.42
2017-09-05T23:24:38.136Z,44.10
2017-09-05T23:29:36.744Z,43.63
2017-09-05T23:34:40.449Z,63.40
2017-09-05T23:37:13.137Z,37.75
2017-09-05T23:47:24.179Z,37.03
2017-09-05T23:52:24.067Z,40.92
